11:19
Airports
Links
Donate
Help keep this website running!
PayPal
Bitcoin
METAR
KLGA 181051Z 23006KT 10SM CLR 12/03 A3030 RMK AO2 SLP259 T01170033
Current Weather Conditions at KLGA
VFR 10:51:00 18-10-17
Automated station
Altimeter:30.30 hg
Temp:11.7°c 52°f
Dew point:3.3°c 37°f
Wind:6 knots, 6.9 mph, 3 m/s, from 230°
Visibility:10.0 statute miles
(CLR) Clear
Past METAR reports
VFR 09:51:00 18-10-17
Automated station
Altimeter:30.29 hg
Temp:11.7°c 52°f
Dew point:2.2°c 36°f
Wind:5 knots, 5.8 mph, 3 m/s, from 190°
Visibility:10.0 statute miles
(CLR) Clear
KLGA 180951Z 19005KT 10SM CLR 12/02 A3029 RMK AO2 SLP256 T01170022
VFR 08:51:00 18-10-17
Automated station
Altimeter:30.27 hg
Temp:12.2°c 54°f
Dew point:2.2°c 36°f
Wind:6 knots, 6.9 mph, 3 m/s, from 250°
Visibility:10.0 statute miles
(CLR) Clear
KLGA 180851Z 25006KT 10SM CLR 12/02 A3027 RMK AO2 SLP250 T01220022 55004
VFR 07:51:00 18-10-17
Automated station
Altimeter:30.26 hg
Temp:12.2°c 54°f
Dew point:2.8°c 36°f
Wind:7 knots, 8.1 mph, 4 m/s, from 230°
Visibility:10.0 statute miles
(CLR) Clear
KLGA 180751Z 23007KT 10SM CLR 12/03 A3026 RMK AO2 SLP247 T01220028
VFR 06:51:00 18-10-17
Automated station
Altimeter:30.28 hg
Temp:12.2°c 54°f
Dew point:2.2°c 36°f
Wind:8 knots, 9.2 mph, 4 m/s, from 250°
Visibility:10.0 statute miles
(CLR) Clear
KLGA 180651Z 25008KT 10SM CLR 12/02 A3028 RMK AO2 SLP253 T01220022
VFR 05:51:00 18-10-17
Automated station
Altimeter:30.28 hg
Temp:12.2°c 54°f
Dew point:2.2°c 36°f
Wind:7 knots, 8.1 mph, 4 m/s, from 220°
Visibility:10.0 statute miles
(CLR) Clear
KLGA 180551Z 22007KT 10SM CLR 12/02 A3028 RMK AO2 SLP254 T01220022 10133 20122 56003
TAF
KLGA 180827Z 1808/1906 23007KT P6SM SKC FM180900 25006KT P6SM SKC FM181300 28006KT P6SM SKC FM181800 25007KT P6SM SKC FM182000 21008KT P6SM SKC FM190200 23006KT P6SM SKC
Forecast at KLGA
08:00 18-10-17 to 09:00 18-10-17
Wind:7 Knots from 230°
Visibility:6.21 statute miles
SKC Clear
FM 09:00 18-10-17 to 13:00 18-10-17
Wind:6 Knots from 250°
Visibility:6.21 statute miles
SKC Clear
FM 13:00 18-10-17 to 18:00 18-10-17
Wind:6 Knots from 280°
Visibility:6.21 statute miles
SKC Clear
FM 18:00 18-10-17 to 20:00 18-10-17
Wind:7 Knots from 250°
Visibility:6.21 statute miles
SKC Clear
FM 20:00 18-10-17 to 02:00 19-10-17
Wind:8 Knots from 210°
Visibility:6.21 statute miles
SKC Clear
FM 02:00 19-10-17 to 06:00 19-10-17
Wind:6 Knots from 230°
Visibility:6.21 statute miles
SKC Clear